Aviation Digital Data Service (ADDS)

Output produced by METARs form (0333 UTC 19 October 2021)
found at http://www.aviationweather.gov/metar/data/
 
METAR text: HUEN 190000Z 00000KT 9999 FEW020 FEW022CB 21/19 Q1014 NOSIG
Conditions at: HUEN (ENTEBBE INTL ARP, UG) observed 0000 UTC 19 October 2021
Temperature: 21.0°C (70°F)
Dewpoint: 19.0°C (66°F) [RH = 88%]
Pressure (altimeter): 29.94 inches Hg (1014.0 mb)
Winds: calm
Visibility: 6 or more miles (10+ km)
Ceiling: at least 12,000 feet AGL
Clouds: few clouds at 2000 feet AGL
few clouds at 2200 feet AGL
Weather: no significant weather observed at this time

METAR text: HUEN 182330Z 27005KT 9999 FEW020 FEW022CB 21/19 Q1014 NOSIG
Conditions at: HUEN (ENTEBBE INTL ARP, UG) observed 2330 UTC 18 October 2021
Temperature: 21.0°C (70°F)
Dewpoint: 19.0°C (66°F) [RH = 88%]
Pressure (altimeter): 29.94 inches Hg (1014.0 mb)
Winds: from the W (270 degrees) at 6 MPH (5 knots; 2.6 m/s)
Visibility: 6 or more miles (10+ km)
Ceiling: at least 12,000 feet AGL
Clouds: few clouds at 2000 feet AGL
few clouds at 2200 feet AGL
Weather: no significant weather observed at this time

METAR text: HUEN 182300Z 27005KT 9999 FEW020 FEW022CB 21/19 Q1014 NOSIG
Conditions at: HUEN (ENTEBBE INTL ARP, UG) observed 2300 UTC 18 October 2021
Temperature: 21.0°C (70°F)
Dewpoint: 19.0°C (66°F) [RH = 88%]
Pressure (altimeter): 29.94 inches Hg (1014.0 mb)
Winds: from the W (270 degrees) at 6 MPH (5 knots; 2.6 m/s)
Visibility: 6 or more miles (10+ km)
Ceiling: at least 12,000 feet AGL
Clouds: few clouds at 2000 feet AGL
few clouds at 2200 feet AGL
Weather: no significant weather observed at this time

METAR text: HUEN 182230Z 27005KT 9999 FEW020 FEW022CB 21/19 Q1014 NOSIG
Conditions at: HUEN (ENTEBBE INTL ARP, UG) observed 2230 UTC 18 October 2021
Temperature: 21.0°C (70°F)
Dewpoint: 19.0°C (66°F) [RH = 88%]
Pressure (altimeter): 29.94 inches Hg (1014.0 mb)
Winds: from the W (270 degrees) at 6 MPH (5 knots; 2.6 m/s)
Visibility: 6 or more miles (10+ km)
Ceiling: at least 12,000 feet AGL
Clouds: few clouds at 2000 feet AGL
few clouds at 2200 feet AGL
Weather: no significant weather observed at this time

METAR text: HUEN 182200Z 27005KT 9999 FEW020 FEW022CB 21/19 Q1014 NOSIG
Conditions at: HUEN (ENTEBBE INTL ARP, UG) observed 2200 UTC 18 October 2021
Temperature: 21.0°C (70°F)
Dewpoint: 19.0°C (66°F) [RH = 88%]
Pressure (altimeter): 29.94 inches Hg (1014.0 mb)
Winds: from the W (270 degrees) at 6 MPH (5 knots; 2.6 m/s)
Visibility: 6 or more miles (10+ km)
Ceiling: at least 12,000 feet AGL
Clouds: few clouds at 2000 feet AGL
few clouds at 2200 feet AGL
Weather: no significant weather observed at this time

METAR text: HUEN 182130Z 00000KT 9999 FEW020 FEW022CB 21/20 Q1015 NOSIG
Conditions at: HUEN (ENTEBBE INTL ARP, UG) observed 2130 UTC 18 October 2021
Temperature: 21.0°C (70°F)
Dewpoint: 20.0°C (68°F) [RH = 94%]
Pressure (altimeter): 29.97 inches Hg (1015.0 mb)
Winds: calm
Visibility: 6 or more miles (10+ km)
Ceiling: at least 12,000 feet AGL
Clouds: few clouds at 2000 feet AGL
few clouds at 2200 feet AGL
Weather: no significant weather observed at this time

METAR text: HUEN 182100Z 25002KT 9999 FEW020 FEW022CB 21/20 Q1015 NOSIG
Conditions at: HUEN (ENTEBBE INTL ARP, UG) observed 2100 UTC 18 October 2021
Temperature: 21.0°C (70°F)
Dewpoint: 20.0°C (68°F) [RH = 94%]
Pressure (altimeter): 29.97 inches Hg (1015.0 mb)
Winds: from the WSW (250 degrees) at 2 MPH (2 knots; 1.0 m/s)
Visibility: 6 or more miles (10+ km)
Ceiling: at least 12,000 feet AGL
Clouds: few clouds at 2000 feet AGL
few clouds at 2200 feet AGL
Weather: no significant weather observed at this time

METAR text: HUEN 182030Z 00000KT 9999 FEW020 FEW022CB 22/20 Q1015 NOSIG
Conditions at: HUEN (ENTEBBE INTL ARP, UG) observed 2030 UTC 18 October 2021
Temperature: 22.0°C (72°F)
Dewpoint: 20.0°C (68°F) [RH = 88%]
Pressure (altimeter): 29.97 inches Hg (1015.0 mb)
Winds: calm
Visibility: 6 or more miles (10+ km)
Ceiling: at least 12,000 feet AGL
Clouds: few clouds at 2000 feet AGL
few clouds at 2200 feet AGL
Weather: no significant weather observed at this time

METAR text: HUEN 182000Z 34002KT 9999 FEW021 FEW023CB 22/20 Q1015 NOSIG
Conditions at: HUEN (ENTEBBE INTL ARP, UG) observed 2000 UTC 18 October 2021
Temperature: 22.0°C (72°F)
Dewpoint: 20.0°C (68°F) [RH = 88%]
Pressure (altimeter): 29.97 inches Hg (1015.0 mb)
Winds: from the NNW (340 degrees) at 2 MPH (2 knots; 1.0 m/s)
Visibility: 6 or more miles (10+ km)
Ceiling: at least 12,000 feet AGL
Clouds: few clouds at 2100 feet AGL
few clouds at 2300 feet AGL
Weather: no significant weather observed at this time

METAR text: HUEN 181930Z 34002KT 9999 FEW021 FEW023CB 23/20 Q1015 NOSIG
Conditions at: HUEN (ENTEBBE INTL ARP, UG) observed 1930 UTC 18 October 2021
Temperature: 23.0°C (73°F)
Dewpoint: 20.0°C (68°F) [RH = 83%]
Pressure (altimeter): 29.97 inches Hg (1015.0 mb)
Winds: from the NNW (340 degrees) at 2 MPH (2 knots; 1.0 m/s)
Visibility: 6 or more miles (10+ km)
Ceiling: at least 12,000 feet AGL
Clouds: few clouds at 2100 feet AGL
few clouds at 2300 feet AGL
Weather: no significant weather observed at this time

METAR text: HUEN 181900Z 32002KT 9999 FEW022 FEW024CB 23/20 Q1015 NOSIG
Conditions at: HUEN (ENTEBBE INTL ARP, UG) observed 1900 UTC 18 October 2021
Temperature: 23.0°C (73°F)
Dewpoint: 20.0°C (68°F) [RH = 83%]
Pressure (altimeter): 29.97 inches Hg (1015.0 mb)
Winds: from the NW (320 degrees) at 2 MPH (2 knots; 1.0 m/s)
Visibility: 6 or more miles (10+ km)
Ceiling: at least 12,000 feet AGL
Clouds: few clouds at 2200 feet AGL
few clouds at 2400 feet AGL
Weather: no significant weather observed at this time

METAR text: HUEN 181830Z 00000KT 9999 FEW022 FEW024CB 23/20 Q1015 NOSIG
Conditions at: HUEN (ENTEBBE INTL ARP, UG) observed 1830 UTC 18 October 2021
Temperature: 23.0°C (73°F)
Dewpoint: 20.0°C (68°F) [RH = 83%]
Pressure (altimeter): 29.97 inches Hg (1015.0 mb)
Winds: calm
Visibility: 6 or more miles (10+ km)
Ceiling: at least 12,000 feet AGL
Clouds: few clouds at 2200 feet AGL
few clouds at 2400 feet AGL
Weather: no significant weather observed at this time

METAR text: HUEN 181800Z 00000KT 9999 FEW022 FEW024CB 23/20 Q1015 NOSIG
Conditions at: HUEN (ENTEBBE INTL ARP, UG) observed 1800 UTC 18 October 2021
Temperature: 23.0°C (73°F)
Dewpoint: 20.0°C (68°F) [RH = 83%]
Pressure (altimeter): 29.97 inches Hg (1015.0 mb)
Winds: calm
Visibility: 6 or more miles (10+ km)
Ceiling: at least 12,000 feet AGL
Clouds: few clouds at 2200 feet AGL
few clouds at 2400 feet AGL
Weather: no significant weather observed at this time

METAR text: HUEN 181730Z 00000KT 9999 FEW023 FEW025CB 24/19 Q1014 NOSIG
Conditions at: HUEN (ENTEBBE INTL ARP, UG) observed 1730 UTC 18 October 2021
Temperature: 24.0°C (75°F)
Dewpoint: 19.0°C (66°F) [RH = 74%]
Pressure (altimeter): 29.94 inches Hg (1014.0 mb)
Winds: calm
Visibility: 6 or more miles (10+ km)
Ceiling: at least 12,000 feet AGL
Clouds: few clouds at 2300 feet AGL
few clouds at 2500 feet AGL
Weather: no significant weather observed at this time

METAR text: HUEN 181600Z 34002KT 9999 FEW023 FEW025CB 24/19 Q1013
Conditions at: HUEN (ENTEBBE INTL ARP, UG) observed 1600 UTC 18 October 2021
Temperature: 24.0°C (75°F)
Dewpoint: 19.0°C (66°F) [RH = 74%]
Pressure (altimeter): 29.91 inches Hg (1013.0 mb)
Winds: from the NNW (340 degrees) at 2 MPH (2 knots; 1.0 m/s)
Visibility: 6 or more miles (10+ km)
Ceiling: at least 12,000 feet AGL
Clouds: few clouds at 2300 feet AGL
few clouds at 2500 feet AGL
Weather: no significant weather observed at this time

METAR text: HUEN 181530Z 14002KT 9999 FEW024 FEW026CB 25/19 Q1012 NOSIG
Conditions at: HUEN (ENTEBBE INTL ARP, UG) observed 1530 UTC 18 October 2021
Temperature: 25.0°C (77°F)
Dewpoint: 19.0°C (66°F) [RH = 69%]
Pressure (altimeter): 29.88 inches Hg (1012.0 mb)
Winds: from the SE (140 degrees) at 2 MPH (2 knots; 1.0 m/s)
Visibility: 6 or more miles (10+ km)
Ceiling: at least 12,000 feet AGL
Clouds: few clouds at 2400 feet AGL
few clouds at 2600 feet AGL
Weather: no significant weather observed at this time

METAR text: HUEN 181500Z 18003KT 9999 FEW025 FEW027CB 25/19 Q1012 NOSIG
Conditions at: HUEN (ENTEBBE INTL ARP, UG) observed 1500 UTC 18 October 2021
Temperature: 25.0°C (77°F)
Dewpoint: 19.0°C (66°F) [RH = 69%]
Pressure (altimeter): 29.88 inches Hg (1012.0 mb)
Winds: from the S (180 degrees) at 3 MPH (3 knots; 1.5 m/s)
Visibility: 6 or more miles (10+ km)
Ceiling: at least 12,000 feet AGL
Clouds: few clouds at 2500 feet AGL
few clouds at 2700 feet AGL
Weather: no significant weather observed at this time

METAR text: HUEN 181430Z 12005KT 9999 FEW026 FEW028CB 26/19 Q1012 NOSIG
Conditions at: HUEN (ENTEBBE INTL ARP, UG) observed 1430 UTC 18 October 2021
Temperature: 26.0°C (79°F)
Dewpoint: 19.0°C (66°F) [RH = 65%]
Pressure (altimeter): 29.88 inches Hg (1012.0 mb)
Winds: from the ESE (120 degrees) at 6 MPH (5 knots; 2.6 m/s)
Visibility: 6 or more miles (10+ km)
Ceiling: at least 12,000 feet AGL
Clouds: few clouds at 2600 feet AGL
few clouds at 2800 feet AGL
Weather: no significant weather observed at this time

METAR text: HUEN 181400Z 16010KT 9999 FEW026 FEW028CB 26/19 Q1012 NOSIG
Conditions at: HUEN (ENTEBBE INTL ARP, UG) observed 1400 UTC 18 October 2021
Temperature: 26.0°C (79°F)
Dewpoint: 19.0°C (66°F) [RH = 65%]
Pressure (altimeter): 29.88 inches Hg (1012.0 mb)
Winds: from the SSE (160 degrees) at 12 MPH (10 knots; 5.1 m/s)
Visibility: 6 or more miles (10+ km)
Ceiling: at least 12,000 feet AGL
Clouds: few clouds at 2600 feet AGL
few clouds at 2800 feet AGL
Weather: no significant weather observed at this time

METAR text: HUEN 181200Z 15015KT 9999 FEW025 FEW027CB 27/19 Q1014
Conditions at: HUEN (ENTEBBE INTL ARP, UG) observed 1200 UTC 18 October 2021
Temperature: 27.0°C (81°F)
Dewpoint: 19.0°C (66°F) [RH = 62%]
Pressure (altimeter): 29.94 inches Hg (1014.0 mb)
Winds: from the SSE (150 degrees) at 17 MPH (15 knots; 7.7 m/s)
Visibility: 6 or more miles (10+ km)
Ceiling: at least 12,000 feet AGL
Clouds: few clouds at 2500 feet AGL
few clouds at 2700 feet AGL
Weather: no significant weather observed at this time

METAR text: HUEN 181130Z 17015KT 9999 FEW025 FEW027CB 27/19 Q1014
Conditions at: HUEN (ENTEBBE INTL ARP, UG) observed 1130 UTC 18 October 2021
Temperature: 27.0°C (81°F)
Dewpoint: 19.0°C (66°F) [RH = 62%]
Pressure (altimeter): 29.94 inches Hg (1014.0 mb)
Winds: from the S (170 degrees) at 17 MPH (15 knots; 7.7 m/s)
Visibility: 6 or more miles (10+ km)
Ceiling: at least 12,000 feet AGL
Clouds: few clouds at 2500 feet AGL
few clouds at 2700 feet AGL
Weather: no significant weather observed at this time

METAR text: HUEN 181100Z 15015KT 9999 FEW025 FEW027CB 27/19 Q1014
Conditions at: HUEN (ENTEBBE INTL ARP, UG) observed 1100 UTC 18 October 2021
Temperature: 27.0°C (81°F)
Dewpoint: 19.0°C (66°F) [RH = 62%]
Pressure (altimeter): 29.94 inches Hg (1014.0 mb)
Winds: from the SSE (150 degrees) at 17 MPH (15 knots; 7.7 m/s)
Visibility: 6 or more miles (10+ km)
Ceiling: at least 12,000 feet AGL
Clouds: few clouds at 2500 feet AGL
few clouds at 2700 feet AGL
Weather: no significant weather observed at this time

METAR text: HUEN 180930Z 18010KT 9999 FEW025 FEW027CB 27/19 Q1017
Conditions at: HUEN (ENTEBBE INTL ARP, UG) observed 0930 UTC 18 October 2021
Temperature: 27.0°C (81°F)
Dewpoint: 19.0°C (66°F) [RH = 62%]
Pressure (altimeter): 30.03 inches Hg (1017.0 mb)
Winds: from the S (180 degrees) at 12 MPH (10 knots; 5.1 m/s)
Visibility: 6 or more miles (10+ km)
Ceiling: at least 12,000 feet AGL
Clouds: few clouds at 2500 feet AGL
few clouds at 2700 feet AGL
Weather: no significant weather observed at this time

METAR text: HUEN 180900Z 20008KT 9999 FEW025 FEW027CB 26/20 Q1017
Conditions at: HUEN (ENTEBBE INTL ARP, UG) observed 0900 UTC 18 October 2021
Temperature: 26.0°C (79°F)
Dewpoint: 20.0°C (68°F) [RH = 70%]
Pressure (altimeter): 30.03 inches Hg (1017.0 mb)
Winds: from the SSW (200 degrees) at 9 MPH (8 knots; 4.1 m/s)
Visibility: 6 or more miles (10+ km)
Ceiling: at least 12,000 feet AGL
Clouds: few clouds at 2500 feet AGL
few clouds at 2700 feet AGL
Weather: no significant weather observed at this time

METAR text: HUEN 180700Z 21004KT 9999 FEW023 24/20 Q1018
Conditions at: HUEN (ENTEBBE INTL ARP, UG) observed 0700 UTC 18 October 2021
Temperature: 24.0°C (75°F)
Dewpoint: 20.0°C (68°F) [RH = 78%]
Pressure (altimeter): 30.06 inches Hg (1018.0 mb)
Winds: from the SSW (210 degrees) at 5 MPH (4 knots; 2.1 m/s)
Visibility: 6 or more miles (10+ km)
Ceiling: at least 12,000 feet AGL
Clouds: few clouds at 2300 feet AGL
Weather: no significant weather observed at this time

METAR text: HUEN 180630Z 34004KT 9999 FEW023 24/20 Q1018
Conditions at: HUEN (ENTEBBE INTL ARP, UG) observed 0630 UTC 18 October 2021
Temperature: 24.0°C (75°F)
Dewpoint: 20.0°C (68°F) [RH = 78%]
Pressure (altimeter): 30.06 inches Hg (1018.0 mb)
Winds: from the NNW (340 degrees) at 5 MPH (4 knots; 2.1 m/s)
Visibility: 6 or more miles (10+ km)
Ceiling: at least 12,000 feet AGL
Clouds: few clouds at 2300 feet AGL
Weather: no significant weather observed at this time

METAR text: HUEN 180600Z 34004KT 9999 FEW023 FEW025CB 23/20 Q1017
Conditions at: HUEN (ENTEBBE INTL ARP, UG) observed 0600 UTC 18 October 2021
Temperature: 23.0°C (73°F)
Dewpoint: 20.0°C (68°F) [RH = 83%]
Pressure (altimeter): 30.03 inches Hg (1017.0 mb)
Winds: from the NNW (340 degrees) at 5 MPH (4 knots; 2.1 m/s)
Visibility: 6 or more miles (10+ km)
Ceiling: at least 12,000 feet AGL
Clouds: few clouds at 2300 feet AGL
few clouds at 2500 feet AGL
Weather: no significant weather observed at this time

METAR text: HUEN 180530Z 34004KT 9999 FEW022 FEW025CB 22/20 Q1017
Conditions at: HUEN (ENTEBBE INTL ARP, UG) observed 0530 UTC 18 October 2021
Temperature: 22.0°C (72°F)
Dewpoint: 20.0°C (68°F) [RH = 88%]
Pressure (altimeter): 30.03 inches Hg (1017.0 mb)
Winds: from the NNW (340 degrees) at 5 MPH (4 knots; 2.1 m/s)
Visibility: 6 or more miles (10+ km)
Ceiling: at least 12,000 feet AGL
Clouds: few clouds at 2200 feet AGL
few clouds at 2500 feet AGL
Weather: no significant weather observed at this time

METAR text: HUEN 180500Z 00000KT 9999 FEW021 FEW024CB 21/20 Q1016 NOSIG
Conditions at: HUEN (ENTEBBE INTL ARP, UG) observed 0500 UTC 18 October 2021
Temperature: 21.0°C (70°F)
Dewpoint: 20.0°C (68°F) [RH = 94%]
Pressure (altimeter): 30.00 inches Hg (1016.0 mb)
Winds: calm
Visibility: 6 or more miles (10+ km)
Ceiling: at least 12,000 feet AGL
Clouds: few clouds at 2100 feet AGL
few clouds at 2400 feet AGL
Weather: no significant weather observed at this time

METAR text: HUEN 180430Z 35002KT 9999 FEW020 FEW024CB 20/19 Q1015 NOSIG
Conditions at: HUEN (ENTEBBE INTL ARP, UG) observed 0430 UTC 18 October 2021
Temperature: 20.0°C (68°F)
Dewpoint: 19.0°C (66°F) [RH = 94%]
Pressure (altimeter): 29.97 inches Hg (1015.0 mb)
Winds: from the N (350 degrees) at 2 MPH (2 knots; 1.0 m/s)
Visibility: 6 or more miles (10+ km)
Ceiling: at least 12,000 feet AGL
Clouds: few clouds at 2000 feet AGL
few clouds at 2400 feet AGL
Weather: no significant weather observed at this time

METAR text: HUEN 180400Z 35002KT 9999 FEW019 FEW024CB 19/18 Q1015 NOSIG
Conditions at: HUEN (ENTEBBE INTL ARP, UG) observed 0400 UTC 18 October 2021
Temperature: 19.0°C (66°F)
Dewpoint: 18.0°C (64°F) [RH = 94%]
Pressure (altimeter): 29.97 inches Hg (1015.0 mb)
Winds: from the N (350 degrees) at 2 MPH (2 knots; 1.0 m/s)
Visibility: 6 or more miles (10+ km)
Ceiling: at least 12,000 feet AGL
Clouds: few clouds at 1900 feet AGL
few clouds at 2400 feet AGL
Weather: no significant weather observed at this time

METAR text: HUEN 180330Z 32003KT 9999 FEW019 FEW024CB 20/19 Q1015 NOSIG
Conditions at: HUEN (ENTEBBE INTL ARP, UG) observed 0330 UTC 18 October 2021
Temperature: 20.0°C (68°F)
Dewpoint: 19.0°C (66°F) [RH = 94%]
Pressure (altimeter): 29.97 inches Hg (1015.0 mb)
Winds: from the NW (320 degrees) at 3 MPH (3 knots; 1.5 m/s)
Visibility: 6 or more miles (10+ km)
Ceiling: at least 12,000 feet AGL
Clouds: few clouds at 1900 feet AGL
few clouds at 2400 feet AGL
Weather: no significant weather observed at this time

METAR text: HUEN 180300Z 32003KT 9999 FEW020 FEW024CB 20/19 Q1014 NOSIG
Conditions at: HUEN (ENTEBBE INTL ARP, UG) observed 0300 UTC 18 October 2021
Temperature: 20.0°C (68°F)
Dewpoint: 19.0°C (66°F) [RH = 94%]
Pressure (altimeter): 29.94 inches Hg (1014.0 mb)
Winds: from the NW (320 degrees) at 3 MPH (3 knots; 1.5 m/s)
Visibility: 6 or more miles (10+ km)
Ceiling: at least 12,000 feet AGL
Clouds: few clouds at 2000 feet AGL
few clouds at 2400 feet AGL
Weather: no significant weather observed at this time

METAR text: HUEN 180230Z 32002KT 9999 FEW020 FEW024CB 19/18 Q1014 NOSIG
Conditions at: HUEN (ENTEBBE INTL ARP, UG) observed 0230 UTC 18 October 2021
Temperature: 19.0°C (66°F)
Dewpoint: 18.0°C (64°F) [RH = 94%]
Pressure (altimeter): 29.94 inches Hg (1014.0 mb)
Winds: from the NW (320 degrees) at 2 MPH (2 knots; 1.0 m/s)
Visibility: 6 or more miles (10+ km)
Ceiling: at least 12,000 feet AGL
Clouds: few clouds at 2000 feet AGL
few clouds at 2400 feet AGL
Weather: no significant weather observed at this time

METAR text: HUEN 180200Z 32002KT 9999 FEW020 FEW024CB 20/19 Q1013 NOSIG
Conditions at: HUEN (ENTEBBE INTL ARP, UG) observed 0200 UTC 18 October 2021
Temperature: 20.0°C (68°F)
Dewpoint: 19.0°C (66°F) [RH = 94%]
Pressure (altimeter): 29.91 inches Hg (1013.0 mb)
Winds: from the NW (320 degrees) at 2 MPH (2 knots; 1.0 m/s)
Visibility: 6 or more miles (10+ km)
Ceiling: at least 12,000 feet AGL
Clouds: few clouds at 2000 feet AGL
few clouds at 2400 feet AGL
Weather: no significant weather observed at this time

METAR text: HUEN 180130Z 35002KT 9999 FEW020 20/19 Q1013 NOSIG
Conditions at: HUEN (ENTEBBE INTL ARP, UG) observed 0130 UTC 18 October 2021
Temperature: 20.0°C (68°F)
Dewpoint: 19.0°C (66°F) [RH = 94%]
Pressure (altimeter): 29.91 inches Hg (1013.0 mb)
Winds: from the N (350 degrees) at 2 MPH (2 knots; 1.0 m/s)
Visibility: 6 or more miles (10+ km)
Ceiling: at least 12,000 feet AGL
Clouds: few clouds at 2000 feet AGL
Weather: no significant weather observed at this time

METAR text: HUEN 180100Z 23002KT 9999 FEW020 20/19 Q1013 NOSIG
Conditions at: HUEN (ENTEBBE INTL ARP, UG) observed 0100 UTC 18 October 2021
Temperature: 20.0°C (68°F)
Dewpoint: 19.0°C (66°F) [RH = 94%]
Pressure (altimeter): 29.91 inches Hg (1013.0 mb)
Winds: from the SW (230 degrees) at 2 MPH (2 knots; 1.0 m/s)
Visibility: 6 or more miles (10+ km)
Ceiling: at least 12,000 feet AGL
Clouds: few clouds at 2000 feet AGL
Weather: no significant weather observed at this time

METAR text: HUEN 180030Z VRB02KT CAVOK 20/18 Q1014 NOSIG
Conditions at: HUEN (ENTEBBE INTL ARP, UG) observed 0030 UTC 18 October 2021
Temperature: 20.0°C (68°F)
Dewpoint: 18.0°C (64°F) [RH = 88%]
Pressure (altimeter): 29.94 inches Hg (1014.0 mb)
Winds: variable direction winds at 2 MPH (2 knots; 1.0 m/s)
Visibility: 6 or more miles (10+ km)
Ceiling: ceiling and visibility are OK
Clouds: unknown
Weather: no significant weather observed at this time

METAR text: HUEN 180000Z VRB02KT CAVOK 20/19 Q1014 NOSIG
Conditions at: HUEN (ENTEBBE INTL ARP, UG) observed 0000 UTC 18 October 2021
Temperature: 20.0°C (68°F)
Dewpoint: 19.0°C (66°F) [RH = 94%]
Pressure (altimeter): 29.94 inches Hg (1014.0 mb)
Winds: variable direction winds at 2 MPH (2 knots; 1.0 m/s)
Visibility: 6 or more miles (10+ km)
Ceiling: ceiling and visibility are OK
Clouds: unknown
Weather: no significant weather observed at this time

METAR text: HUEN 172330Z VRB02KT CAVOK 20/19 Q1014 NOSIG
Conditions at: HUEN (ENTEBBE INTL ARP, UG) observed 2330 UTC 17 October 2021
Temperature: 20.0°C (68°F)
Dewpoint: 19.0°C (66°F) [RH = 94%]
Pressure (altimeter): 29.94 inches Hg (1014.0 mb)
Winds: variable direction winds at 2 MPH (2 knots; 1.0 m/s)
Visibility: 6 or more miles (10+ km)
Ceiling: ceiling and visibility are OK
Clouds: unknown
Weather: no significant weather observed at this time

METAR text: HUEN 172300Z VRB02KT CAVOK 20/19 Q1014 NOSIG
Conditions at: HUEN (ENTEBBE INTL ARP, UG) observed 2300 UTC 17 October 2021
Temperature: 20.0°C (68°F)
Dewpoint: 19.0°C (66°F) [RH = 94%]
Pressure (altimeter): 29.94 inches Hg (1014.0 mb)
Winds: variable direction winds at 2 MPH (2 knots; 1.0 m/s)
Visibility: 6 or more miles (10+ km)
Ceiling: ceiling and visibility are OK
Clouds: unknown
Weather: no significant weather observed at this time

METAR text: HUEN 172230Z 31003KT CAVOK 21/19 Q1014 NOSIG
Conditions at: HUEN (ENTEBBE INTL ARP, UG) observed 2230 UTC 17 October 2021
Temperature: 21.0°C (70°F)
Dewpoint: 19.0°C (66°F) [RH = 88%]
Pressure (altimeter): 29.94 inches Hg (1014.0 mb)
Winds: from the NW (310 degrees) at 3 MPH (3 knots; 1.5 m/s)
Visibility: 6 or more miles (10+ km)
Ceiling: ceiling and visibility are OK
Clouds: unknown
Weather: no significant weather observed at this time

METAR text: HUEN 172200Z 29004KT CAVOK 21/19 Q1015 NOSIG
Conditions at: HUEN (ENTEBBE INTL ARP, UG) observed 2200 UTC 17 October 2021
Temperature: 21.0°C (70°F)
Dewpoint: 19.0°C (66°F) [RH = 88%]
Pressure (altimeter): 29.97 inches Hg (1015.0 mb)
Winds: from the WNW (290 degrees) at 5 MPH (4 knots; 2.1 m/s)
Visibility: 6 or more miles (10+ km)
Ceiling: ceiling and visibility are OK
Clouds: unknown
Weather: no significant weather observed at this time

METAR text: HUEN 172130Z 01003KT CAVOK 21/18 Q1015 NOSIG
Conditions at: HUEN (ENTEBBE INTL ARP, UG) observed 2130 UTC 17 October 2021
Temperature: 21.0°C (70°F)
Dewpoint: 18.0°C (64°F) [RH = 83%]
Pressure (altimeter): 29.97 inches Hg (1015.0 mb)
Winds: from the N (10 degrees) at 3 MPH (3 knots; 1.5 m/s)
Visibility: 6 or more miles (10+ km)
Ceiling: ceiling and visibility are OK
Clouds: unknown
Weather: no significant weather observed at this time

METAR text: HUEN 172100Z 05003KT CAVOK 21/18 Q1016 NOSIG
Conditions at: HUEN (ENTEBBE INTL ARP, UG) observed 2100 UTC 17 October 2021
Temperature: 21.0°C (70°F)
Dewpoint: 18.0°C (64°F) [RH = 83%]
Pressure (altimeter): 30.00 inches Hg (1016.0 mb)
Winds: from the NE (50 degrees) at 3 MPH (3 knots; 1.5 m/s)
Visibility: 6 or more miles (10+ km)
Ceiling: ceiling and visibility are OK
Clouds: unknown
Weather: no significant weather observed at this time

METAR text: HUEN 172000Z 25004KT CAVOK 21/18 Q1016 NOSIG
Conditions at: HUEN (ENTEBBE INTL ARP, UG) observed 2000 UTC 17 October 2021
Temperature: 21.0°C (70°F)
Dewpoint: 18.0°C (64°F) [RH = 83%]
Pressure (altimeter): 30.00 inches Hg (1016.0 mb)
Winds: from the WSW (250 degrees) at 5 MPH (4 knots; 2.1 m/s)
Visibility: 6 or more miles (10+ km)
Ceiling: ceiling and visibility are OK
Clouds: unknown
Weather: no significant weather observed at this time

METAR text: HUEN 171930Z 20003KT CAVOK 22/18 Q1015 NOSIG
Conditions at: HUEN (ENTEBBE INTL ARP, UG) observed 1930 UTC 17 October 2021
Temperature: 22.0°C (72°F)
Dewpoint: 18.0°C (64°F) [RH = 78%]
Pressure (altimeter): 29.97 inches Hg (1015.0 mb)
Winds: from the SSW (200 degrees) at 3 MPH (3 knots; 1.5 m/s)
Visibility: 6 or more miles (10+ km)
Ceiling: ceiling and visibility are OK
Clouds: unknown
Weather: no significant weather observed at this time

METAR text: HUEN 171900Z 07003KT CAVOK 22/18 Q1015
Conditions at: HUEN (ENTEBBE INTL ARP, UG) observed 1900 UTC 17 October 2021
Temperature: 22.0°C (72°F)
Dewpoint: 18.0°C (64°F) [RH = 78%]
Pressure (altimeter): 29.97 inches Hg (1015.0 mb)
Winds: from the ENE (70 degrees) at 3 MPH (3 knots; 1.5 m/s)
Visibility: 6 or more miles (10+ km)
Ceiling: ceiling and visibility are OK
Clouds: unknown
Weather: no significant weather observed at this time

METAR text: HUEN 171830Z 07003KT CAVOK 22/18 Q1015 NOSIG
Conditions at: HUEN (ENTEBBE INTL ARP, UG) observed 1830 UTC 17 October 2021
Temperature: 22.0°C (72°F)
Dewpoint: 18.0°C (64°F) [RH = 78%]
Pressure (altimeter): 29.97 inches Hg (1015.0 mb)
Winds: from the ENE (70 degrees) at 3 MPH (3 knots; 1.5 m/s)
Visibility: 6 or more miles (10+ km)
Ceiling: ceiling and visibility are OK
Clouds: unknown
Weather: no significant weather observed at this time

METAR text: HUEN 171800Z VRB03KT 9999 FEW020 FEW024CB 23/18 Q1014 NOSIG
Conditions at: HUEN (ENTEBBE INTL ARP, UG) observed 1800 UTC 17 October 2021
Temperature: 23.0°C (73°F)
Dewpoint: 18.0°C (64°F) [RH = 73%]
Pressure (altimeter): 29.94 inches Hg (1014.0 mb)
Winds: variable direction winds at 3 MPH (3 knots; 1.5 m/s)
Visibility: 6 or more miles (10+ km)
Ceiling: at least 12,000 feet AGL
Clouds: few clouds at 2000 feet AGL
few clouds at 2400 feet AGL
Weather: no significant weather observed at this time

METAR text: HUEN 171730Z 11003KT 9999 SCT020 FEW024CB 23/18 Q1014 NOSIG
Conditions at: HUEN (ENTEBBE INTL ARP, UG) observed 1730 UTC 17 October 2021
Temperature: 23.0°C (73°F)
Dewpoint: 18.0°C (64°F) [RH = 73%]
Pressure (altimeter): 29.94 inches Hg (1014.0 mb)
Winds: from the ESE (110 degrees) at 3 MPH (3 knots; 1.5 m/s)
Visibility: 6 or more miles (10+ km)
Ceiling: at least 12,000 feet AGL
Clouds: scattered clouds at 2000 feet AGL
few clouds at 2400 feet AGL
Weather: no significant weather observed at this time

METAR text: HUEN 171700Z 08003KT 9999 SCT020 FEW024CB 23/18 Q1014 NOSIG
Conditions at: HUEN (ENTEBBE INTL ARP, UG) observed 1700 UTC 17 October 2021
Temperature: 23.0°C (73°F)
Dewpoint: 18.0°C (64°F) [RH = 73%]
Pressure (altimeter): 29.94 inches Hg (1014.0 mb)
Winds: from the E (80 degrees) at 3 MPH (3 knots; 1.5 m/s)
Visibility: 6 or more miles (10+ km)
Ceiling: at least 12,000 feet AGL
Clouds: scattered clouds at 2000 feet AGL
few clouds at 2400 feet AGL
Weather: no significant weather observed at this time

METAR text: HUEN 171630Z 09003KT 9999 SCT020 FEW024CB 23/18 Q1014
Conditions at: HUEN (ENTEBBE INTL ARP, UG) observed 1630 UTC 17 October 2021
Temperature: 23.0°C (73°F)
Dewpoint: 18.0°C (64°F) [RH = 73%]
Pressure (altimeter): 29.94 inches Hg (1014.0 mb)
Winds: from the E (90 degrees) at 3 MPH (3 knots; 1.5 m/s)
Visibility: 6 or more miles (10+ km)
Ceiling: at least 12,000 feet AGL
Clouds: scattered clouds at 2000 feet AGL
few clouds at 2400 feet AGL
Weather: no significant weather observed at this time

METAR text: HUEN 171600Z 15003KT 9999 SCT020 FEW024CB 23/18 Q1013 NOSIG
Conditions at: HUEN (ENTEBBE INTL ARP, UG) observed 1600 UTC 17 October 2021
Temperature: 23.0°C (73°F)
Dewpoint: 18.0°C (64°F) [RH = 73%]
Pressure (altimeter): 29.91 inches Hg (1013.0 mb)
Winds: from the SSE (150 degrees) at 3 MPH (3 knots; 1.5 m/s)
Visibility: 6 or more miles (10+ km)
Ceiling: at least 12,000 feet AGL
Clouds: scattered clouds at 2000 feet AGL
few clouds at 2400 feet AGL
Weather: no significant weather observed at this time

Forecast for: HUEN (ENTEBBE INTL ARP, UG)
Text: TAF HUEN 182300Z 1900/2006 VRB10KT 9999 FEW023 FEW025CB
Forecast period: 0000 to 0900 UTC 19 October 2021
Forecast type: FROM: standard forecast or significant change
Winds: variable direction winds at 12 MPH (10 knots; 5.1 m/s)
Visibility: 6 or more miles (10+ km)
Ceiling: at least 12,000 feet AGL
Clouds: few clouds at 2300 feet AGL
few clouds at 2500 feet AGL
Weather: no significant weather forecast for this period
Text: TEMPO 1902/1906 8000 -TSRA SCT018 FEW020CB BKN100
Forecast period: 0200 to 0600 UTC 19 October 2021
Forecast type: TEMPORARY: The following changes expected for less than half the time period
Visibility: 5 miles (8 km)
Ceiling: 10000 feet AGL
Clouds: scattered clouds at 1800 feet AGL
few clouds at 2000 feet AGL
broken clouds at 10000 feet AGL
Weather: -TSRA  (light rain associated with thunderstorm(s))
Text: BECMG 1909/1913 18010KT
Forecast period: 0900 UTC 19 October 2021 to 0600 UTC 20 October 2021
Forecast type: BECOMING: Conditions expected to become as follows by 1300 UTC 19 October 2021
Winds: from the S (180 degrees) at 12 MPH (10 knots; 5.1 m/s)
Visibility: 6 or more miles (10+ km)
Ceiling: at least 12,000 feet AGL
Clouds: few clouds at 2300 feet AGL
few clouds at 2500 feet AGL
Weather: no significant weather forecast for this period